Time;durP1;ratioP1;P1;durP2;ratioP2;P2;SDS_P1;SDS_P2;PMS_P1;PMS_P2;Temp;Humidity;BMP_temperature;BMP_pressure;BME280_temperature;BME280_humidity;BME280_pressure;Samples;Min_cycle;Max_cycle;Signal;HPM_P1;HPM_P2
2021/06/22 00:02:45;;;;;;;7.97;4.60;;;;;;;14.04;100.00;101794.61;1876825;75;86064;-73
2021/06/22 00:08:10;;;;;;;9.57;5.00;;;;;;;14.11;100.00;101797.95;1838343;77;86049;-76
2021/06/22 00:13:34;;;;;;;8.80;4.70;;;;;;;14.05;100.00;101794.05;1914383;73;39458;-73
2021/06/22 00:18:59;;;;;;;8.43;5.37;;;;;;;14.02;100.00;101798.83;1837459;77;85470;-71
2021/06/22 00:24:25;;;;;;;13.40;5.23;;;;;;;14.03;100.00;101795.72;1946012;73;39529;-75
2021/06/22 00:29:50;;;;;;;7.10;4.93;;;;;;;13.94;100.00;101800.25;1882127;75;86677;-72
2021/06/22 00:35:16;;;;;;;10.40;4.77;;;;;;;13.97;100.00;101796.05;1923777;73;39529;-75
2021/06/22 00:40:40;;;;;;;11.10;5.70;;;;;;;14.01;100.00;101798.54;1943182;73;39420;-75
2021/06/22 00:46:05;;;;;;;12.03;6.13;;;;;;;13.91;100.00;101790.19;1946900;71;86217;-73
2021/06/22 00:51:30;;;;;;;9.57;5.77;;;;;;;13.82;100.00;101792.73;1918440;73;39633;-76
2021/06/22 00:56:54;;;;;;;9.40;5.40;;;;;;;13.82;100.00;101789.13;1877444;75;86560;-72
2021/06/22 01:02:18;;;;;;;9.63;5.83;;;;;;;13.76;100.00;101791.64;1948112;73;39411;-72
2021/06/22 01:07:42;;;;;;;7.13;5.47;;;;;;;13.80;100.00;101796.94;1909960;72;39551;-72
2021/06/22 01:13:07;;;;;;;11.47;6.90;;;;;;;13.81;100.00;101794.42;1864116;73;86312;-72
2021/06/22 01:18:31;;;;;;;8.90;6.47;;;;;;;13.78;100.00;101797.20;1914848;73;39619;-75
2021/06/22 01:23:55;;;;;;;9.90;7.43;;;;;;;13.75;100.00;101794.16;1837474;77;85496;-75
2021/06/22 01:29:20;;;;;;;10.93;6.53;;;;;;;13.71;100.00;101787.47;1947445;73;40375;-76
2021/06/22 01:34:47;;;;;;;12.43;6.80;;;;;;;13.69;100.00;101789.97;1877032;75;86367;-75
2021/06/22 01:40:13;;;;;;;10.67;6.90;;;;;;;13.63;100.00;101784.70;1939825;72;39449;-75
2021/06/22 01:45:37;;;;;;;12.67;7.37;;;;;;;13.66;100.00;101789.16;1944018;73;39747;-75
2021/06/22 01:51:02;;;;;;;10.67;8.10;;;;;;;13.60;100.00;101789.46;1785092;79;86189;-75
2021/06/22 01:56:27;;;;;;;12.67;7.83;;;;;;;13.62;100.00;101787.20;1921103;72;39731;-72
2021/06/22 02:01:53;;;;;;;10.03;7.87;;;;;;;13.59;100.00;101791.41;1903196;74;86556;-74
2021/06/22 02:07:19;;;;;;;13.03;8.37;;;;;;;13.55;100.00;101788.91;1936747;73;39615;-76
2021/06/22 02:12:43;;;;;;;11.37;7.93;;;;;;;13.54;100.00;101808.72;1904559;75;86136;-75
2021/06/22 02:18:09;;;;;;;11.57;8.40;;;;;;;13.54;100.00;101801.19;1869627;76;86503;-73
2021/06/22 02:23:35;;;;;;;15.47;7.93;;;;;;;13.54;100.00;101802.59;1944258;73;39583;-72
2021/06/22 02:29:00;;;;;;;12.00;7.37;;;;;;;13.53;100.00;101802.30;1860934;76;85534;-73
2021/06/22 02:34:24;;;;;;;13.33;8.50;;;;;;;13.49;100.00;101817.09;1902831;73;39638;-75
2021/06/22 02:39:49;;;;;;;12.57;7.60;;;;;;;13.54;100.00;101816.55;1877591;75;86382;-72
2021/06/22 02:45:17;;;;;;;11.50;8.20;;;;;;;13.49;100.00;101810.96;1923753;73;39841;-76
2021/06/22 02:50:49;;;;;;;12.33;7.53;;;;;;;13.46;100.00;101813.48;1877599;75;86282;-72
2021/06/22 02:56:14;;;;;;;11.73;7.93;;;;;;;13.50;100.00;101815.98;1948881;73;39507;-75
2021/06/22 03:01:38;;;;;;;10.73;8.17;;;;;;;13.46;100.00;101822.70;1931903;72;39788;-73
2021/06/22 03:07:03;;;;;;;12.00;7.83;;;;;;;13.45;100.00;101830.78;1947418;71;86244;-72
2021/06/22 03:12:27;;;;;;;16.57;8.30;;;;;;;13.49;100.00;101838.03;1945943;73;39541;-75
2021/06/22 03:17:52;;;;;;;15.77;8.53;;;;;;;13.39;100.00;101830.50;1877117;74;86085;-75
2021/06/22 03:23:16;;;;;;;14.13;7.60;;;;;;;13.41;100.00;101833.02;1938458;72;39585;-75
2021/06/22 03:28:59;;;;;;;16.67;9.20;;;;;;;13.38;100.00;101840.02;1912502;73;87016;-73
2021/06/22 03:34:26;;;;;;;15.13;8.90;;;;;;;13.40;100.00;101840.55;1935325;72;39701;-75
2021/06/22 03:39:50;;;;;;;11.53;8.93;;;;;;;13.33;100.00;101840.56;1892997;74;85711;-75
2021/06/22 03:48:07;;;;;;;14.73;9.87;;;;;;;13.34;100.00;101843.09;1966785;71;39393;-75
2021/06/22 03:50:38;;;;;;;13.83;10.13;;;;;;;13.30;100.00;101849.50;1868505;74;936511;-76
2021/06/22 03:56:04;;;;;;;13.60;9.47;;;;;;;13.29;100.00;101836.66;1777420;79;85615;-75
2021/06/22 04:01:29;;;;;;;12.87;9.97;;;;;;;13.31;100.00;101845.02;1907727;73;39626;-76
2021/06/22 04:06:54;;;;;;;13.20;9.70;;;;;;;13.21;100.00;101851.45;1869419;77;85209;-76
2021/06/22 04:12:37;;;;;;;12.40;9.67;;;;;;;13.29;100.00;101860.37;1973125;71;39581;-75
2021/06/22 04:18:05;;;;;;;13.07;10.27;;;;;;;13.29;100.00;101868.19;1860779;76;86408;-75
2021/06/22 04:23:30;;;;;;;13.93;9.87;;;;;;;13.27;100.00;101867.63;1930966;73;39514;-74
2021/06/22 04:28:54;;;;;;;13.07;10.53;;;;;;;13.27;100.00;101873.20;1837221;77;86399;-75
2021/06/22 04:34:19;;;;;;;12.70;10.17;;;;;;;13.32;100.00;101881.58;1947481;73;39790;-76
2021/06/22 04:39:42;;;;;;;15.00;10.20;;;;;;;13.32;100.00;101887.72;1943178;73;39617;-73
2021/06/22 04:45:08;;;;;;;19.03;10.67;;;;;;;13.29;100.00;101884.09;1840337;76;86322;-71
2021/06/22 04:50:33;;;;;;;14.77;10.27;;;;;;;13.35;100.00;101888.58;1944952;73;39886;-73
2021/06/22 04:55:59;;;;;;;13.20;10.83;;;;;;;13.28;100.00;101893.58;1837838;77;86564;-73
2021/06/22 05:01:28;;;;;;;15.70;11.03;;;;;;;13.32;100.00;101891.91;1946018;73;39462;-75
2021/06/22 05:06:52;;;;;;;13.03;10.33;;;;;;;13.30;100.00;101888.56;1832318;77;86040;-76
2021/06/22 05:12:16;;;;;;;15.87;10.13;;;;;;;13.36;100.00;101898.05;1948478;73;39585;-75
2021/06/22 05:17:41;;;;;;;14.10;10.20;;;;;;;13.37;100.00;101908.66;1911175;72;39523;-75
2021/06/22 05:23:06;;;;;;;13.10;10.50;;;;;;;13.40;100.00;101910.33;1833462;78;86427;-75
2021/06/22 05:28:31;;;;;;;15.67;10.77;;;;;;;13.38;100.00;101912.58;1931970;72;39679;-72
2021/06/22 05:33:55;;;;;;;12.77;10.37;;;;;;;13.39;100.00;101919.00;1868871;77;86747;-71
2021/06/22 05:39:20;;;;;;;14.40;9.90;;;;;;;13.42;100.00;101919.27;1921323;73;39568;-73
2021/06/22 05:44:44;;;;;;;15.17;10.70;;;;;;;13.48;100.00;101922.33;1877243;75;86404;-73
2021/06/22 05:50:09;;;;;;;15.57;10.83;;;;;;;13.50;100.00;101925.69;1861458;76;86085;-73
2021/06/22 05:55:43;;;;;;;13.87;10.00;;;;;;;13.49;100.00;101933.78;1910078;74;86155;-75
2021/06/22 06:01:08;;;;;;;14.93;10.37;;;;;;;13.57;100.00;101937.41;1785006;79;86191;-75
2021/06/22 06:06:33;;;;;;;13.63;9.87;;;;;;;13.62;100.00;101937.41;1944721;73;39732;-75
2021/06/22 06:11:57;;;;;;;15.97;10.40;;;;;;;13.62;100.00;101942.16;1852000;75;86720;-74
2021/06/22 06:17:21;;;;;;;12.33;9.70;;;;;;;13.67;100.00;101951.94;1935518;72;39604;-74
2021/06/22 06:22:48;;;;;;;14.13;9.80;;;;;;;13.72;100.00;101947.75;1877150;74;86453;-75
2021/06/22 06:28:16;;;;;;;13.37;9.43;;;;;;;13.82;100.00;101953.31;1907382;73;39677;-75
2021/06/22 06:33:41;;;;;;;15.03;8.00;;;;;;;13.81;100.00;101960.59;1943471;73;39741;-75
2021/06/22 06:39:06;;;;;;;10.77;8.10;;;;;;;13.85;100.00;101967.30;1838348;77;86463;-73
2021/06/22 06:44:31;;;;;;;11.40;8.23;;;;;;;13.92;100.00;101970.63;1945334;73;39410;-72
2021/06/22 06:49:54;;;;;;;11.40;7.43;;;;;;;13.92;100.00;101970.08;1837710;77;86423;-72
2021/06/22 06:55:27;;;;;;;11.73;7.70;;;;;;;14.00;100.00;101976.50;1947142;73;39592;-71
2021/06/22 07:00:52;;;;;;;14.97;8.20;;;;;;;14.02;100.00;101988.24;1837150;77;86137;-71
2021/06/22 07:06:17;;;;;;;10.73;7.67;;;;;;;14.10;100.00;101977.89;1948516;73;39535;-71
2021/06/22 07:11:41;;;;;;;13.13;7.90;;;;;;;14.20;100.00;101988.22;1943426;73;39402;-73
2021/06/22 07:17:06;;;;;;;10.17;6.90;;;;;;;14.32;100.00;101989.31;1838284;77;86359;-74
2021/06/22 07:22:31;;;;;;;9.53;6.97;;;;;;;14.35;100.00;101986.81;1945421;73;39403;-71
2021/06/22 07:27:58;;;;;;;7.50;6.33;;;;;;;14.39;100.00;101994.91;1892519;74;86572;-76
2021/06/22 07:33:24;;;;;;;10.47;6.40;;;;;;;14.57;100.00;102004.66;1918694;72;39622;-73
2021/06/22 07:39:08;;;;;;;8.33;6.20;;;;;;;14.51;100.00;102009.41;1834852;76;85461;-70
2021/06/22 07:44:36;;;;;;;8.53;5.70;;;;;;;14.59;100.00;102005.20;1944371;73;39563;-79
2021/06/22 07:50:06;;;;;;;10.90;6.53;;;;;;;14.71;100.00;102004.91;1825324;78;86208;-69
2021/06/22 07:55:34;;;;;;;10.67;6.13;;;;;;;14.79;100.00;102002.91;1953794;72;39570;-78
2021/06/22 08:00:59;;;;;;;7.57;5.70;;;;;;;14.85;100.00;101998.95;1837655;77;86355;-78
2021/06/22 08:06:23;;;;;;;9.43;5.40;;;;;;;15.04;100.00;102003.64;1919122;73;39686;-78
2021/06/22 08:11:48;;;;;;;9.37;5.10;;;;;;;15.06;100.00;102002.52;1877478;75;86376;-68
2021/06/22 08:17:12;;;;;;;7.93;4.40;;;;;;;15.06;100.00;101999.14;1949634;73;40329;-68
2021/06/22 08:22:36;;;;;;;8.50;4.33;;;;;;;15.17;100.00;102006.37;1917307;73;39608;-78
2021/06/22 08:28:02;;;;;;;7.30;4.00;;;;;;;15.55;100.00;102000.57;1943984;71;86280;-69
2021/06/22 08:33:29;;;;;;;7.33;3.83;;;;;;;15.52;100.00;102006.76;1943479;73;39855;-69
2021/06/22 08:38:53;;;;;;;6.60;4.03;;;;;;;15.71;100.00;101995.68;1837439;77;85778;-74
2021/06/22 08:44:20;;;;;;;7.13;4.00;;;;;;;15.66;100.00;101999.36;1947424;73;39651;-73
2021/06/22 08:49:44;;;;;;;7.40;3.70;;;;;;;15.73;100.00;101990.64;1929983;72;85380;-75
2021/06/22 08:55:26;;;;;;;5.90;3.73;;;;;;;15.79;100.00;101984.69;1869567;77;86528;-69
2021/06/22 09:00:54;;;;;;;7.97;4.23;;;;;;;16.00;100.00;101992.95;1877795;76;86534;-73
2021/06/22 09:06:21;;;;;;;5.70;4.63;;;;;;;16.23;100.00;101995.79;1947563;73;39648;-74
2021/06/22 09:12:08;;;;;;;6.73;4.17;;;;;;;16.44;100.00;101990.80;1877240;75;86187;-76
2021/06/22 09:17:42;;;;;;;9.47;4.23;;;;;;;16.16;100.00;101992.50;1917668;73;39560;-78
2021/06/22 09:23:17;;;;;;;6.07;3.97;;;;;;;16.12;100.00;101994.23;1881794;75;86379;-78
2021/06/22 09:28:44;;;;;;;7.77;3.57;;;;;;;16.28;100.00;102000.52;1924480;72;39736;-78
2021/06/22 09:34:18;;;;;;;7.27;3.33;;;;;;;16.31;100.00;102000.75;1869455;77;86631;-78
2021/06/22 09:39:50;;;;;;;8.53;3.90;;;;;;;16.39;100.00;102002.91;1877970;76;85721;-68
2021/06/22 09:45:24;;;;;;;4.83;3.00;;;;;;;16.26;100.00;101995.19;1950226;72;39661;-76
2021/06/22 09:50:48;;;;;;;5.33;3.40;;;;;;;16.50;100.00;102000.84;1882212;75;86510;-76
2021/06/22 09:56:25;;;;;;;5.83;3.00;;;;;;;16.77;100.00;102000.30;1946582;73;40065;-78
2021/06/22 10:01:52;;;;;;;5.63;3.07;;;;;;;16.92;100.00;101990.27;1882543;75;86688;-77
2021/06/22 10:07:23;;;;;;;3.70;2.20;;;;;;;17.25;100.00;101992.63;1921310;73;39599;-78
2021/06/22 10:12:51;;;;;;;6.87;2.00;;;;;;;17.17;100.00;101997.52;1882476;75;86647;-78
2021/06/22 10:18:24;;;;;;;3.27;1.73;;;;;;;17.15;100.00;101999.24;1946446;73;39526;-79
2021/06/22 10:23:51;;;;;;;4.90;1.80;;;;;;;17.27;100.00;101994.02;1877540;75;86678;-76
2021/06/22 10:29:20;;;;;;;3.40;1.30;;;;;;;17.19;100.00;102001.71;1986263;71;39711;-67
2021/06/22 10:34:50;;;;;;;3.53;1.20;;;;;;;17.27;100.00;101996.82;1872609;75;86730;-79
2021/06/22 10:43:07;;;;;;;6.50;1.80;;;;;;;17.25;100.00;102011.72;2010170;69;39633;-69
2021/06/22 10:48:51;;;;;;;3.63;1.27;;;;;;;17.48;100.00;101998.77;1877243;75;85665;-75
2021/06/22 10:54:54;;;;;;;8.87;1.77;;;;;;;17.54;100.00;102000.94;1922051;72;39614;-69
2021/06/22 10:57:49;;;;;;;2.58;1.20;;;;;;;17.44;100.00;102007.53;1837968;75;934703;-75
2021/06/22 11:03:20;;;;;;;2.20;1.10;;;;;;;17.43;100.00;102003.61;1925197;73;39816;-73
2021/06/22 11:08:46;;;;;;;3.57;1.30;;;;;;;17.43;100.00;102005.85;1877161;75;86790;-69
2021/06/22 11:14:19;;;;;;;2.60;1.30;;;;;;;17.40;100.00;102009.28;1921927;73;39620;-69
2021/06/22 11:20:08;;;;;;;2.93;1.50;;;;;;;17.46;100.00;102008.05;1904851;75;86130;-75
2021/06/22 11:26:04;;;;;;;4.27;1.40;;;;;;;17.29;100.00;102002.11;1837486;77;86724;-74
2021/06/22 11:31:58;;;;;;;4.17;1.20;;;;;;;17.25;100.00;102014.53;1877320;75;85475;-68
2021/06/22 11:37:25;;;;;;;2.40;1.33;;;;;;;17.65;100.00;102008.09;1946690;73;40527;-74
2021/06/22 11:43:11;;;;;;;4.27;1.20;;;;;;;18.02;100.00;102003.81;1829526;78;85825;-77
2021/06/22 11:48:56;;;;;;;4.93;1.50;;;;;;;18.08;100.00;102011.03;1893770;73;39575;-75
2021/06/22 11:52:22;;;;;;;4.10;1.20;;;;;;;17.87;100.00;102012.52;1841551;75;933657;-70
2021/06/22 11:57:56;;;;;;;4.03;1.10;;;;;;;17.53;100.00;102004.31;1832501;78;86468;-70
2021/06/22 12:03:31;;;;;;;4.17;1.43;;;;;;;17.35;100.00;102019.17;1947083;73;39454;-70
2021/06/22 12:09:05;;;;;;;2.97;0.90;;;;;;;17.43;100.00;102014.84;1777286;80;86241;-78
2021/06/22 12:14:31;;;;;;;1.27;0.80;;;;;;;17.73;100.00;102018.64;1945380;73;39478;-71
2021/06/22 12:19:59;;;;;;;3.43;0.90;;;;;;;18.01;100.00;102016.19;1878867;75;86267;-77
2021/06/22 12:28:17;;;;;;;3.60;1.30;;;;;;;17.74;100.00;102014.13;1961281;70;39483;-80
2021/06/22 12:30:49;;;;;;;2.77;1.00;;;;;;;17.59;100.00;102020.53;1845110;76;934433;-79
2021/06/22 12:33:22;;;;;;;5.77;1.33;;;;;;;17.54;100.00;102026.22;1827534;77;935731;-80
2021/06/22 12:38:50;;;;;;;2.13;0.90;;;;;;;17.35;100.00;102021.14;1877230;75;86325;-73
2021/06/22 12:44:14;;;;;;;1.40;0.77;;;;;;;17.58;100.00;102024.50;1949132;73;39455;-77
2021/06/22 12:49:40;;;;;;;4.07;1.00;;;;;;;17.87;100.00;102030.78;1926196;73;39661;-79
2021/06/22 12:55:09;;;;;;;3.03;0.90;;;;;;;17.91;100.00;102027.63;1869418;76;86352;-72
2021/06/22 13:00:38;;;;;;;2.27;1.10;;;;;;;17.67;100.00;102040.95;1915295;73;39733;-74
2021/06/22 13:06:05;;;;;;;2.67;0.83;;;;;;;17.58;100.00;102028.72;1782333;79;86451;-70
2021/06/22 13:11:34;;;;;;;3.40;1.17;;;;;;;17.98;100.00;102042.12;1934034;72;39418;-71
2021/06/22 13:17:14;;;;;;;3.73;1.60;;;;;;;18.06;100.00;102040.58;1907731;73;39508;-70
2021/06/22 13:22:40;;;;;;;2.43;0.80;;;;;;;18.30;100.00;102044.12;1912106;73;39586;-71
2021/06/22 13:28:16;;;;;;;5.33;0.80;;;;;;;18.02;100.00;102051.61;1838220;77;86463;-72
2021/06/22 13:33:40;;;;;;;3.10;0.90;;;;;;;17.58;100.00;102062.44;1943735;73;39616;-73
2021/06/22 13:39:11;;;;;;;3.70;1.17;;;;;;;17.72;100.00;102060.52;1842296;76;86473;-71
2021/06/22 13:44:48;;;;;;;4.93;1.17;;;;;;;18.12;100.00;102046.39;1904784;75;85423;-71
2021/06/22 13:50:27;;;;;;;3.20;1.00;;;;;;;18.36;100.00;102042.03;1946259;73;39601;-73
2021/06/22 13:55:53;;;;;;;3.17;0.93;;;;;;;18.89;100.00;102052.31;1877137;75;86371;-72
2021/06/22 14:01:17;;;;;;;1.70;0.73;;;;;;;19.09;100.00;102041.47;1923294;73;39533;-73
2021/06/22 14:06:41;;;;;;;3.07;0.60;;;;;;;18.76;100.00;102042.72;1899563;73;39660;-72
2021/06/22 14:12:06;;;;;;;3.43;0.80;;;;;;;18.68;100.00;102054.70;1838439;77;86450;-71
2021/06/22 14:17:32;;;;;;;3.90;1.00;;;;;;;18.66;100.00;102058.38;1918509;73;39470;-72
2021/06/22 14:22:57;;;;;;;4.50;1.30;;;;;;;18.71;100.00;102059.70;1837494;77;86564;-74
2021/06/22 14:28:24;;;;;;;1.63;0.80;;;;;;;18.53;100.00;102064.25;1946926;73;39655;-74
2021/06/22 14:33:49;;;;;;;2.93;1.00;;;;;;;18.68;100.00;102063.14;1882499;75;86205;-72
2021/06/22 14:39:14;;;;;;;6.10;1.20;;;;;;;18.30;100.00;102079.28;1924560;73;39479;-73
2021/06/22 14:44:47;;;;;;;5.37;1.17;;;;;;;18.29;100.00;102080.98;1891706;74;86380;-72
2021/06/22 14:50:12;;;;;;;3.23;1.10;;;;;;;18.10;100.00;102088.03;1838660;77;86605;-74
2021/06/22 14:55:37;;;;;;;2.70;0.93;;;;;;;18.32;100.00;102076.14;1927480;72;39430;-74
2021/06/22 15:01:03;;;;;;;4.43;0.83;;;;;;;19.23;100.00;102076.67;1777317;78;86504;-74
2021/06/22 15:06:27;;;;;;;6.43;1.17;;;;;;;18.97;100.00;102080.59;1917344;73;39523;-71
2021/06/22 15:11:53;;;;;;;5.73;1.50;;;;;;;18.50;100.00;102090.17;1877143;75;86582;-74
2021/06/22 15:17:22;;;;;;;3.20;1.00;;;;;;;18.58;100.00;102087.25;1935660;72;39613;-71
2021/06/22 15:22:49;;;;;;;3.13;1.40;;;;;;;18.70;100.00;102078.33;1922161;74;86859;-72
2021/06/22 15:28:15;;;;;;;2.70;1.13;;;;;;;18.88;100.00;102077.39;1949055;73;39701;-74
2021/06/22 15:33:38;;;;;;;3.10;1.00;;;;;;;18.61;100.00;102081.02;1900390;73;39565;-72
2021/06/22 15:39:03;;;;;;;6.53;1.37;;;;;;;18.52;100.00;102089.88;1862325;76;86441;-74
2021/06/22 15:44:28;;;;;;;4.93;1.17;;;;;;;18.42;100.00;102101.30;1920885;73;39880;-71
2021/06/22 15:49:51;;;;;;;4.40;1.00;;;;;;;18.30;100.00;102103.20;1877030;75;86969;-74
2021/06/22 15:55:18;;;;;;;4.07;1.20;;;;;;;18.20;100.00;102099.97;1948958;73;39824;-72
2021/06/22 16:00:46;;;;;;;4.40;1.30;;;;;;;18.25;100.00;102105.25;1871353;76;86670;-77
2021/06/22 16:06:14;;;;;;;3.17;1.10;;;;;;;18.19;100.00;102103.91;1869432;77;87044;-70
2021/06/22 16:11:39;;;;;;;4.73;1.07;;;;;;;18.30;100.00;102108.81;1938979;73;39633;-73
2021/06/22 16:17:04;;;;;;;4.33;1.63;;;;;;;18.31;100.00;102110.50;1862078;76;86653;-70
2021/06/22 16:22:32;;;;;;;3.77;1.33;;;;;;;18.37;100.00;102110.66;1901415;73;39616;-75
2021/06/22 16:27:56;;;;;;;3.13;1.10;;;;;;;18.46;100.00;102113.61;1837511;77;86226;-72
2021/06/22 16:33:24;;;;;;;6.97;1.60;;;;;;;18.33;100.00;102113.82;1946523;73;39558;-72
2021/06/22 16:38:48;;;;;;;3.23;1.50;;;;;;;18.32;100.00;102121.15;1877240;75;86274;-72
2021/06/22 16:44:12;;;;;;;3.97;1.07;;;;;;;18.14;100.00;102124.28;1930382;72;39444;-71
2021/06/22 16:49:36;;;;;;;3.47;0.90;;;;;;;18.02;100.00;102130.91;1932482;72;39494;-73
2021/06/22 16:55:05;;;;;;;3.23;1.00;;;;;;;18.10;100.00;102128.25;1798848;78;86377;-71
2021/06/22 17:00:32;;;;;;;3.63;1.50;;;;;;;18.24;100.00;102131.13;1919970;72;39533;-72
2021/06/22 17:05:57;;;;;;;2.93;1.20;;;;;;;18.39;100.00;102129.49;1837482;77;85862;-72
2021/06/22 17:11:24;;;;;;;4.87;1.30;;;;;;;18.43;100.00;102130.55;1920427;73;39543;-76
2021/06/22 17:16:48;;;;;;;2.90;1.40;;;;;;;18.20;100.00;102147.78;1876928;75;86206;-71
2021/06/22 17:22:16;;;;;;;3.17;1.20;;;;;;;17.90;100.00;102150.21;1938797;73;39515;-78
2021/06/22 17:27:41;;;;;;;4.03;0.90;;;;;;;17.78;100.00;102155.45;1910063;73;39571;-77
2021/06/22 17:36:12;;;;;;;3.07;1.27;;;;;;;17.56;100.00;102165.81;2006944;69;39473;-76
2021/06/22 17:38:43;;;;;;;4.53;0.90;;;;;;;17.51;100.00;102162.50;1923693;73;934804;-79
2021/06/22 17:41:14;;;;;;;1.80;0.70;;;;;;;17.56;100.00;102165.25;1850914;75;934855;-78
2021/06/22 17:43:44;;;;;;;3.00;1.07;;;;;;;17.55;100.00;102166.38;1895602;74;936719;-80
2021/06/22 17:46:14;;;;;;;4.10;1.50;;;;;;;17.54;100.00;102168.92;1895565;74;934794;-77
2021/06/22 17:48:44;;;;;;;3.30;1.33;;;;;;;17.56;100.00;102167.22;1895642;74;936842;-76
2021/06/22 17:51:14;;;;;;;2.10;0.90;;;;;;;17.59;100.00;102170.86;1895740;73;934713;-79
2021/06/22 17:56:41;;;;;;;3.17;1.00;;;;;;;17.71;100.00;102170.70;1943735;73;39513;-79
2021/06/22 18:02:08;;;;;;;4.07;1.17;;;;;;;17.77;100.00;102165.02;1880683;75;86000;-76
2021/06/22 18:07:33;;;;;;;3.03;1.20;;;;;;;17.88;100.00;102161.78;1944693;73;39600;-73
2021/06/22 18:13:01;;;;;;;3.27;1.20;;;;;;;17.61;100.00;102174.22;1837483;77;86100;-80
2021/06/22 18:18:26;;;;;;;3.53;0.97;;;;;;;17.57;100.00;102173.95;1933387;73;39428;-78
2021/06/22 18:23:52;;;;;;;3.07;1.23;;;;;;;17.61;100.00;102172.81;1876890;75;86317;-75
2021/06/22 18:29:17;;;;;;;4.00;1.00;;;;;;;17.57;100.00;102182.39;1948399;73;39429;-81
2021/06/22 18:34:47;;;;;;;4.10;1.13;;;;;;;17.42;100.00;102185.93;1891889;74;86336;-73
2021/06/22 18:40:14;;;;;;;2.77;0.70;;;;;;;17.34;100.00;102185.19;1949748;73;39688;-75
2021/06/22 18:45:39;;;;;;;2.87;0.90;;;;;;;17.37;100.00;102191.04;1911259;73;39667;-75
2021/06/22 18:51:05;;;;;;;3.07;0.93;;;;;;;17.44;100.00;102196.31;1947444;71;86355;-74
2021/06/22 18:56:28;;;;;;;3.50;0.90;;;;;;;17.20;100.00;102204.73;1945619;73;39537;-81
2021/06/22 19:01:54;;;;;;;4.53;0.73;;;;;;;16.84;100.00;102209.29;1883261;75;86600;-75
2021/06/22 19:07:21;;;;;;;3.53;1.20;;;;;;;16.70;100.00;102210.24;1937359;72;39510;-76
2021/06/22 19:15:33;;;;;;;2.00;0.87;;;;;;;16.52;100.00;102217.36;1996489;69;39596;-74
2021/06/22 19:21:00;;;;;;;2.07;0.93;;;;;;;16.38;100.00;102220.02;1893511;74;86234;-74
2021/06/22 19:26:24;;;;;;;2.90;0.80;;;;;;;16.27;100.00;102227.36;1918913;73;39649;-74
2021/06/22 19:31:48;;;;;;;4.63;0.90;;;;;;;16.13;100.00;102233.36;1877514;75;86434;-75
2021/06/22 19:37:20;;;;;;;1.07;0.73;;;;;;;16.04;100.00;102237.33;1924465;73;39601;-73
2021/06/22 19:42:45;;;;;;;4.73;1.00;;;;;;;15.84;100.00;102243.00;1881419;75;86623;-74
2021/06/22 19:48:13;;;;;;;2.93;1.00;;;;;;;15.78;100.00;102246.41;1882811;75;86520;-75
2021/06/22 19:56:26;;;;;;;4.53;1.40;;;;;;;15.89;100.00;102250.84;2001012;69;39637;-74
2021/06/22 20:01:50;;;;;;;3.67;1.20;;;;;;;15.62;100.00;102253.73;1892304;75;86365;-83
2021/06/22 20:07:19;;;;;;;3.30;1.20;;;;;;;15.53;100.00;102252.10;1905422;73;39421;-74
2021/06/22 20:12:44;;;;;;;2.03;1.10;;;;;;;15.50;100.00;102262.45;1942738;72;40251;-77
2021/06/22 20:18:10;;;;;;;4.57;1.20;;;;;;;15.27;100.00;102280.69;1838624;77;86461;-77
2021/06/22 20:23:38;;;;;;;2.80;1.40;;;;;;;15.22;100.00;102282.09;1918008;73;39455;-75
2021/06/22 20:29:03;;;;;;;3.90;1.30;;;;;;;15.04;100.00;102285.45;1784956;79;86518;-71
2021/06/22 20:34:28;;;;;;;2.73;1.23;;;;;;;14.76;100.00;102293.81;1917848;73;39787;-74
2021/06/22 20:39:52;;;;;;;5.10;1.43;;;;;;;14.65;100.00;102299.69;1842595;76;86358;-73
2021/06/22 20:45:20;;;;;;;5.80;1.20;;;;;;;14.42;100.00;102307.46;1923047;73;39607;-72
2021/06/22 20:50:43;;;;;;;5.17;1.17;;;;;;;14.60;100.00;102313.09;1914512;72;39615;-78
2021/06/22 20:56:09;;;;;;;3.83;1.60;;;;;;;14.29;100.00;102306.55;1910239;74;86548;-75
2021/06/22 21:01:35;;;;;;;6.70;2.20;;;;;;;13.90;100.00;102315.92;1944402;73;39515;-72
2021/06/22 21:07:01;;;;;;;3.87;1.60;;;;;;;13.90;100.00;102326.25;1780084;79;86363;-76
2021/06/22 21:15:17;;;;;;;6.07;1.70;;;;;;;13.82;100.00;102333.75;2006370;69;39542;-73
2021/06/22 21:17:48;;;;;;;4.33;1.50;;;;;;;13.74;100.00;102341.22;1936098;73;934457;-83
2021/06/22 21:20:18;;;;;;;2.57;1.20;;;;;;;13.61;100.00;102339.74;1936329;73;934740;-80
2021/06/22 21:25:45;;;;;;;5.10;1.63;;;;;;;13.69;100.00;102326.70;1882408;75;86320;-75
2021/06/22 21:31:09;;;;;;;3.67;1.60;;;;;;;13.88;100.00;102341.03;1838882;77;86836;-76
2021/06/22 21:36:34;;;;;;;4.60;1.77;;;;;;;13.41;100.00;102350.78;1918175;73;39560;-74
2021/06/22 21:41:59;;;;;;;4.47;1.80;;;;;;;13.36;100.00;102355.77;1869356;76;86175;-72
2021/06/22 21:47:24;;;;;;;4.47;1.93;;;;;;;13.37;100.00;102351.87;1946369;73;39637;-73
2021/06/22 21:52:47;;;;;;;6.47;1.87;;;;;;;13.45;100.00;102357.50;1881598;75;86693;-72
2021/06/22 21:58:15;;;;;;;2.70;1.50;;;;;;;13.16;100.00;102356.45;1923986;73;40547;-72
2021/06/22 22:03:41;;;;;;;6.33;1.70;;;;;;;13.07;100.00;102356.61;1910187;73;39574;-72
2021/06/22 22:09:06;;;;;;;4.03;1.73;;;;;;;13.27;100.00;102356.52;1877835;75;86479;-76
2021/06/22 22:14:30;;;;;;;4.50;2.03;;;;;;;13.12;100.00;102355.85;1913578;73;39672;-78
2021/06/22 22:19:57;;;;;;;5.80;2.27;;;;;;;12.85;100.00;102360.02;1883235;75;86241;-74
2021/06/22 22:25:21;;;;;;;6.17;2.20;;;;;;;12.74;100.00;102371.64;1903117;73;39463;-74
2021/06/22 22:30:45;;;;;;;4.07;2.10;;;;;;;12.71;100.00;102367.12;1881927;75;86350;-74
2021/06/22 22:36:11;;;;;;;4.80;1.83;;;;;;;12.68;100.00;102371.28;1868754;76;85985;-73
2021/06/22 22:41:35;;;;;;;6.90;2.27;;;;;;;12.66;100.00;102372.66;1913004;73;39756;-73
2021/06/22 22:47:00;;;;;;;4.17;1.90;;;;;;;12.59;100.00;102380.38;1868010;75;85336;-73
2021/06/22 22:52:26;;;;;;;3.40;1.93;;;;;;;12.56;100.00;102369.20;1903242;73;39602;-73
2021/06/22 22:57:49;;;;;;;3.17;1.47;;;;;;;12.53;100.00;102370.28;1877436;75;86237;-72
2021/06/22 23:03:16;;;;;;;4.30;1.70;;;;;;;12.52;100.00;102373.62;1939082;73;40396;-73
2021/06/22 23:08:40;;;;;;;4.60;1.60;;;;;;;12.44;100.00;102378.27;1939043;73;39496;-73
2021/06/22 23:14:03;;;;;;;6.43;1.90;;;;;;;12.41;100.00;102373.77;1861028;76;86715;-74
2021/06/22 23:19:27;;;;;;;6.50;1.93;;;;;;;12.36;100.00;102380.13;1918785;73;39626;-74
2021/06/22 23:24:57;;;;;;;3.67;1.60;;;;;;;12.19;100.00;102378.77;1877759;74;85961;-74
2021/06/22 23:30:23;;;;;;;4.90;2.53;;;;;;;12.23;100.00;102374.94;1947265;73;39709;-74
2021/06/22 23:35:47;;;;;;;4.77;2.77;;;;;;;12.10;100.00;102371.98;1877330;75;86721;-74
2021/06/22 23:41:12;;;;;;;3.93;2.67;;;;;;;12.05;100.00;102382.20;1926079;73;39827;-74
2021/06/22 23:46:36;;;;;;;5.37;2.60;;;;;;;11.91;100.00;102383.13;1893136;73;39536;-73
2021/06/22 23:52:00;;;;;;;7.53;2.33;;;;;;;11.94;100.00;102387.36;1841268;76;86312;-73
2021/06/22 23:57:23;;;;;;;4.87;2.27;;;;;;;11.88;100.00;102378.08;1903197;73;40252;-72
